createdAt,value
2022-09-14T00:01:14.285Z,7.63
2022-09-14T00:03:42.818Z,7.80
2022-09-14T00:06:11.954Z,7.53
2022-09-14T00:08:39.901Z,7.70
2022-09-14T00:11:09.219Z,7.53
2022-09-14T00:13:37.362Z,7.87
2022-09-14T00:16:06.949Z,7.83
2022-09-14T00:18:35.406Z,8.17
2022-09-14T00:21:05.619Z,7.90
2022-09-14T00:23:33.510Z,7.67
2022-09-14T00:26:04.300Z,7.80
2022-09-14T00:28:31.804Z,7.90
2022-09-14T00:30:59.322Z,8.30
2022-09-14T00:33:26.881Z,8.57
2022-09-14T00:35:54.330Z,7.90
2022-09-14T00:38:23.186Z,7.90
2022-09-14T00:40:58.286Z,8.47
2022-09-14T00:43:26.130Z,8.40
2022-09-14T00:45:54.053Z,7.90
2022-09-14T00:48:24.128Z,8.23
2022-09-14T00:50:51.833Z,8.17
2022-09-14T00:53:20.010Z,8.63
2022-09-14T00:55:48.916Z,9.00
2022-09-14T00:58:16.373Z,8.20
2022-09-14T01:00:43.848Z,8.00
2022-09-14T01:03:11.441Z,8.20
2022-09-14T01:05:49.861Z,8.03
2022-09-14T01:08:26.594Z,8.20
2022-09-14T01:11:04.271Z,8.33
2022-09-14T01:13:40.370Z,8.77
2022-09-14T01:16:12.770Z,8.73
2022-09-14T01:18:44.716Z,8.97
2022-09-14T01:21:15.471Z,8.20
2022-09-14T01:23:48.538Z,8.20
2022-09-14T01:26:45.144Z,8.60
2022-09-14T01:29:16.714Z,8.60
2022-09-14T01:31:48.977Z,7.90
2022-09-14T01:34:24.019Z,8.20
2022-09-14T01:36:55.549Z,8.20
2022-09-14T01:39:23.663Z,8.20
2022-09-14T01:41:51.711Z,8.40
2022-09-14T01:44:23.733Z,8.67
2022-09-14T01:46:53.806Z,8.43
2022-09-14T01:49:28.273Z,8.17
2022-09-14T01:51:59.666Z,8.00
2022-09-14T01:54:29.989Z,8.20
2022-09-14T01:57:00.687Z,8.37
2022-09-14T01:59:32.739Z,8.50
2022-09-14T02:02:04.678Z,8.53
2022-09-14T02:04:37.470Z,9.00
2022-09-14T02:07:05.077Z,9.20
2022-09-14T02:09:32.617Z,9.20
2022-09-14T02:12:00.873Z,9.27
2022-09-14T02:14:30.275Z,9.27
2022-09-14T02:16:58.018Z,9.00
2022-09-14T02:19:27.418Z,9.30
2022-09-14T02:21:54.880Z,9.40
2022-09-14T02:24:23.048Z,8.97
2022-09-14T02:26:52.222Z,9.37
2022-09-14T02:29:19.773Z,8.73
2022-09-14T02:31:59.547Z,8.87
2022-09-14T02:34:31.840Z,8.70
2022-09-14T02:37:02.901Z,8.57
2022-09-14T02:39:37.077Z,9.23
2022-09-14T02:42:13.278Z,9.60
2022-09-14T02:44:43.781Z,9.47
2022-09-14T02:47:28.401Z,9.30
2022-09-14T02:49:59.517Z,9.07
2022-09-14T02:52:32.817Z,9.83
2022-09-14T02:55:04.556Z,8.80
2022-09-14T02:57:32.010Z,8.77
2022-09-14T02:59:59.591Z,8.63
2022-09-14T03:02:28.490Z,9.37
2022-09-14T03:04:56.497Z,8.83
2022-09-14T03:07:24.015Z,9.27
2022-09-14T03:09:51.478Z,9.53
2022-09-14T03:12:18.922Z,9.37
2022-09-14T03:14:46.406Z,9.53
2022-09-14T03:17:13.841Z,9.37
2022-09-14T03:19:42.635Z,9.40
2022-09-14T03:22:10.070Z,9.60
2022-09-14T03:24:37.517Z,9.57
2022-09-14T03:27:05.437Z,9.63
2022-09-14T03:29:32.894Z,8.93
2022-09-14T03:32:00.573Z,8.70
2022-09-14T03:34:28.041Z,9.43
2022-09-14T03:36:56.842Z,8.47
2022-09-14T03:39:24.846Z,9.20
2022-09-14T03:41:52.370Z,8.90
2022-09-14T03:44:19.862Z,8.50
2022-09-14T03:46:47.718Z,8.80
2022-09-14T03:49:15.239Z,8.73
2022-09-14T03:51:42.706Z,9.30
2022-09-14T03:54:11.542Z,9.60
2022-09-14T03:56:39.031Z,8.30
2022-09-14T03:59:09.110Z,8.67
2022-09-14T04:01:37.988Z,8.43
2022-09-14T04:04:05.578Z,8.90
2022-09-14T04:06:33.531Z,9.20
2022-09-14T04:09:00.978Z,9.20
2022-09-14T04:11:31.346Z,9.23
2022-09-14T04:14:02.146Z,9.43
2022-09-14T04:16:30.236Z,9.37
2022-09-14T04:18:57.867Z,9.97
2022-09-14T04:21:26.481Z,10.47
2022-09-14T04:26:44.184Z,9.77
2022-09-14T04:29:12.268Z,9.57
2022-09-14T04:31:40.009Z,10.30
2022-09-14T04:34:07.694Z,10.10
2022-09-14T04:36:35.178Z,9.93
2022-09-14T04:39:03.530Z,10.27
2022-09-14T04:41:32.370Z,10.23
2022-09-14T04:44:01.385Z,10.30
2022-09-14T04:46:31.209Z,9.73
2022-09-14T04:48:59.005Z,9.57
2022-09-14T04:51:28.745Z,9.93
2022-09-14T04:53:57.837Z,10.13
2022-09-14T04:56:26.223Z,10.23
2022-09-14T04:58:55.027Z,10.63
2022-09-14T05:01:25.632Z,10.30
2022-09-14T05:03:54.101Z,10.07
2022-09-14T05:06:24.443Z,9.97
2022-09-14T05:08:53.249Z,10.03
2022-09-14T05:11:22.481Z,9.77
2022-09-14T05:13:50.873Z,9.50
2022-09-14T05:16:20.339Z,10.33
2022-09-14T05:18:49.674Z,10.20
2022-09-14T05:21:19.396Z,10.57
2022-09-14T05:23:47.439Z,10.17
2022-09-14T05:26:15.506Z,10.40
2022-09-14T05:28:43.063Z,10.40
2022-09-14T05:31:13.447Z,10.40
2022-09-14T05:33:41.106Z,9.93
2022-09-14T05:36:11.451Z,9.77
2022-09-14T05:38:40.332Z,9.60
2022-09-14T05:41:09.436Z,10.13
2022-09-14T05:43:36.921Z,9.47
2022-09-14T05:46:09.018Z,10.00
2022-09-14T05:48:38.136Z,10.20
2022-09-14T05:51:07.648Z,9.87
2022-09-14T05:53:36.753Z,10.07
2022-09-14T05:56:06.088Z,10.30
2022-09-14T05:58:33.870Z,10.40
2022-09-14T06:01:08.158Z,10.10
2022-09-14T06:03:35.862Z,9.87
2022-09-14T06:06:03.992Z,10.20
2022-09-14T06:08:31.509Z,10.83
2022-09-14T06:11:04.549Z,10.60
2022-09-14T06:13:32.066Z,10.23
2022-09-14T06:16:02.902Z,10.33
2022-09-14T06:18:31.917Z,9.90
2022-09-14T06:20:59.447Z,10.13
2022-09-14T06:23:27.994Z,9.90
2022-09-14T06:25:55.837Z,10.23
2022-09-14T06:28:25.394Z,10.03
2022-09-14T06:30:53.512Z,10.57
2022-09-14T06:33:21.436Z,10.03
2022-09-14T06:35:58.311Z,10.10
2022-09-14T06:38:25.983Z,10.20
2022-09-14T06:40:55.797Z,11.10
2022-09-14T06:43:25.043Z,11.57
2022-09-14T06:45:59.925Z,10.90
2022-09-14T06:48:27.776Z,10.67
2022-09-14T06:50:55.252Z,10.93
2022-09-14T06:53:22.882Z,11.80
2022-09-14T06:55:50.441Z,11.90
2022-09-14T06:58:18.033Z,12.73
2022-09-14T07:00:46.890Z,12.10
2022-09-14T07:03:14.468Z,12.47
2022-09-14T07:05:41.965Z,12.13
2022-09-14T07:08:12.308Z,12.60
2022-09-14T07:10:40.101Z,12.00
2022-09-14T07:13:07.581Z,12.90
2022-09-14T07:15:35.046Z,13.70
2022-09-14T07:18:04.227Z,13.30
2022-09-14T07:20:31.736Z,13.90
2022-09-14T07:22:59.223Z,14.40
2022-09-14T07:25:26.690Z,15.00
2022-09-14T07:27:54.217Z,15.13
2022-09-14T07:30:24.847Z,13.97
2022-09-14T07:32:52.466Z,14.13
2022-09-14T07:35:24.967Z,13.67
2022-09-14T07:37:52.446Z,13.37
2022-09-14T07:40:19.938Z,13.63
2022-09-14T07:42:54.349Z,14.07
2022-09-14T07:45:24.890Z,14.23
2022-09-14T07:47:52.374Z,13.43
2022-09-14T07:50:21.569Z,13.47
2022-09-14T07:52:50.660Z,13.83
2022-09-14T07:55:18.890Z,13.83
2022-09-14T07:57:56.254Z,13.80
2022-09-14T08:00:26.277Z,16.93
2022-09-14T08:02:55.051Z,16.93
2022-09-14T08:05:24.394Z,16.90
2022-09-14T08:07:55.038Z,16.90
2022-09-14T08:10:22.710Z,16.90
2022-09-14T08:12:51.835Z,16.53
2022-09-14T08:15:19.514Z,17.73
2022-09-14T08:17:47.170Z,17.80
2022-09-14T08:20:16.298Z,17.50
2022-09-14T08:22:45.159Z,17.43
2022-09-14T08:25:13.153Z,16.83
2022-09-14T08:27:40.601Z,17.33
2022-09-14T08:30:10.047Z,17.10
2022-09-14T08:32:37.523Z,17.50
2022-09-14T08:35:07.065Z,17.60
2022-09-14T08:37:34.486Z,17.70
2022-09-14T08:40:04.818Z,17.60
2022-09-14T08:42:32.322Z,18.40
2022-09-14T08:45:06.349Z,17.93
2022-09-14T08:47:38.878Z,17.63
2022-09-14T08:50:13.175Z,16.80
2022-09-14T08:52:43.421Z,17.20
2022-09-14T08:55:23.035Z,17.20
2022-09-14T08:57:55.310Z,17.23
2022-09-14T09:00:24.777Z,16.90
2022-09-14T09:03:08.766Z,17.03
2022-09-14T09:05:41.352Z,17.43
2022-09-14T09:08:16.804Z,17.40
2022-09-14T09:10:46.339Z,17.83
2022-09-14T09:13:18.768Z,17.53
2022-09-14T09:15:49.173Z,17.90
2022-09-14T09:18:20.110Z,18.10
2022-09-14T09:20:51.720Z,18.17
2022-09-14T09:23:21.209Z,18.50
2022-09-14T09:25:57.291Z,18.43
2022-09-14T09:28:25.914Z,18.30
2022-09-14T09:30:55.159Z,18.40
2022-09-14T09:33:32.115Z,18.50
2022-09-14T09:36:16.664Z,18.77
2022-09-14T09:38:45.233Z,18.90
2022-09-14T09:41:17.822Z,17.50
2022-09-14T09:44:00.123Z,17.60
2022-09-14T09:46:29.422Z,18.23
2022-09-14T09:48:57.514Z,18.23
2022-09-14T09:51:29.869Z,18.10
2022-09-14T09:54:07.020Z,18.43
2022-09-14T09:56:39.473Z,18.00
2022-09-14T09:59:23.425Z,18.30
2022-09-14T10:01:52.263Z,17.80
2022-09-14T10:04:22.262Z,17.40
2022-09-14T10:06:51.164Z,16.87
2022-09-14T10:09:23.027Z,16.17
2022-09-14T10:11:59.252Z,16.10
2022-09-14T10:14:31.251Z,16.57
2022-09-14T10:17:09.369Z,16.40
2022-09-14T10:19:37.678Z,17.70
2022-09-14T10:22:17.523Z,18.57
2022-09-14T10:24:54.097Z,18.50
2022-09-14T10:27:41.285Z,17.77
2022-09-14T10:30:15.259Z,18.03
2022-09-14T10:32:45.839Z,18.33
2022-09-14T10:35:15.267Z,18.73
2022-09-14T10:37:53.912Z,19.27
2022-09-14T10:40:25.429Z,21.07
2022-09-14T10:43:04.856Z,20.70
2022-09-14T10:45:36.899Z,20.80
2022-09-14T10:48:15.816Z,21.40
2022-09-14T10:50:53.350Z,21.93
2022-09-14T10:53:32.201Z,21.60
2022-09-14T10:56:03.657Z,21.93
2022-09-14T10:58:41.984Z,21.13
2022-09-14T11:01:26.601Z,20.83
2022-09-14T11:04:07.255Z,20.50
2022-09-14T11:06:45.201Z,19.40
2022-09-14T11:09:18.587Z,19.73
2022-09-14T11:12:02.669Z,19.63
2022-09-14T11:14:42.290Z,19.40
2022-09-14T11:17:26.953Z,19.17
2022-09-14T11:20:00.696Z,19.50
2022-09-14T11:22:33.612Z,19.53
2022-09-14T11:25:04.858Z,18.80
2022-09-14T11:27:35.497Z,19.10
2022-09-14T11:30:07.122Z,19.33
2022-09-14T11:32:36.979Z,19.33
2022-09-14T11:35:16.471Z,18.83
2022-09-14T11:37:48.309Z,18.97
2022-09-14T11:40:25.538Z,19.47
2022-09-14T11:42:57.984Z,18.70
2022-09-14T11:45:30.096Z,18.40
2022-09-14T11:48:41.436Z,18.20
2022-09-14T11:51:05.661Z,18.43
2022-09-14T11:53:33.630Z,17.80
2022-09-14T11:56:01.665Z,17.80
2022-09-14T11:58:30.778Z,17.50
2022-09-14T12:01:31.237Z,17.53
2022-09-14T12:04:12.352Z,17.50
2022-09-14T12:06:54.981Z,17.43
2022-09-14T12:09:41.769Z,17.70
2022-09-14T12:12:31.545Z,17.90
2022-09-14T12:15:03.661Z,17.30
2022-09-14T12:17:41.243Z,17.13
2022-09-14T12:20:35.269Z,17.63
2022-09-14T12:23:11.805Z,18.27
2022-09-14T12:25:40.216Z,17.27
2022-09-14T12:28:47.686Z,17.27
2022-09-14T12:31:33.397Z,16.80
2022-09-14T12:34:16.302Z,17.60
2022-09-14T12:37:31.906Z,17.57
2022-09-14T12:40:31.257Z,16.83
2022-09-14T12:43:49.064Z,16.90
2022-09-14T12:46:39.780Z,17.17
2022-09-14T12:49:25.367Z,17.13
2022-09-14T12:51:53.030Z,17.03
2022-09-14T12:54:28.230Z,16.73
2022-09-14T12:57:07.829Z,16.60
2022-09-14T12:59:42.273Z,16.20
2022-09-14T13:02:26.290Z,16.27
2022-09-14T13:04:54.206Z,17.50
2022-09-14T13:07:22.749Z,17.87
2022-09-14T13:09:52.508Z,17.63
2022-09-14T13:12:25.217Z,16.80
2022-09-14T13:14:55.635Z,17.33
2022-09-14T13:17:30.393Z,17.53
2022-09-14T13:20:00.370Z,17.67
2022-09-14T13:22:29.292Z,18.57
2022-09-14T13:24:57.153Z,17.90
2022-09-14T13:27:27.861Z,17.53
2022-09-14T13:30:00.843Z,17.37
2022-09-14T13:32:28.641Z,17.20
2022-09-14T13:34:56.241Z,17.20
2022-09-14T13:37:24.566Z,17.17
2022-09-14T13:39:53.504Z,16.87
2022-09-14T13:42:22.008Z,17.23
2022-09-14T13:44:51.445Z,17.63
2022-09-14T13:47:20.790Z,17.40
2022-09-14T13:49:50.281Z,17.50
2022-09-14T13:52:19.704Z,17.70
2022-09-14T13:54:47.499Z,17.50
2022-09-14T13:57:16.887Z,17.07
2022-09-14T14:00:20.935Z,17.00
2022-09-14T14:02:50.763Z,17.13
2022-09-14T14:05:23.833Z,16.93
2022-09-14T14:07:51.857Z,16.87
2022-09-14T14:10:26.110Z,16.90
2022-09-14T14:12:53.778Z,16.70
2022-09-14T14:15:49.705Z,17.00
2022-09-14T14:18:33.168Z,16.63
2022-09-14T14:21:14.903Z,16.47
2022-09-14T14:23:56.790Z,16.43
2022-09-14T14:26:30.836Z,15.90
2022-09-14T14:29:11.600Z,15.73
2022-09-14T14:31:40.558Z,15.60
2022-09-14T14:34:13.937Z,15.73
2022-09-14T14:36:41.440Z,16.40
2022-09-14T14:39:08.953Z,16.10
2022-09-14T14:41:36.634Z,15.90
2022-09-14T14:44:04.910Z,15.27
2022-09-14T14:46:32.421Z,15.70
2022-09-14T14:49:01.301Z,16.10
2022-09-14T14:51:28.792Z,15.93
2022-09-14T14:53:56.297Z,15.53
2022-09-14T14:56:23.769Z,15.60
2022-09-14T14:58:51.403Z,15.60
2022-09-14T15:01:19.004Z,16.23
2022-09-14T15:03:46.869Z,16.13
2022-09-14T15:06:20.022Z,16.57
2022-09-14T15:08:48.381Z,16.37
2022-09-14T15:11:17.788Z,16.73
2022-09-14T15:13:45.558Z,16.37
2022-09-14T15:16:14.744Z,16.33
2022-09-14T15:18:42.799Z,16.07
2022-09-14T15:21:10.597Z,15.87
2022-09-14T15:23:39.894Z,16.03
2022-09-14T15:26:07.711Z,15.73
2022-09-14T15:28:38.379Z,16.10
2022-09-14T15:31:07.935Z,16.47
2022-09-14T15:33:35.638Z,16.50
2022-09-14T15:36:03.620Z,16.60
2022-09-14T15:38:31.282Z,16.00
2022-09-14T15:41:00.089Z,16.23
2022-09-14T15:43:27.615Z,15.93
2022-09-14T15:45:55.443Z,16.00
2022-09-14T15:48:23.042Z,16.57
2022-09-14T15:50:50.508Z,16.23
2022-09-14T15:53:18.331Z,16.63
2022-09-14T15:55:47.051Z,16.33
2022-09-14T15:58:15.841Z,16.40
2022-09-14T16:00:44.835Z,16.20
2022-09-14T16:03:12.748Z,16.13
2022-09-14T16:05:40.442Z,16.10
2022-09-14T16:08:08.253Z,16.20
2022-09-14T16:10:35.706Z,16.17
2022-09-14T16:13:03.164Z,15.97
2022-09-14T16:15:31.976Z,15.93
2022-09-14T16:17:59.503Z,16.20
2022-09-14T16:20:26.941Z,15.87
2022-09-14T16:22:54.457Z,16.13
2022-09-14T16:25:21.990Z,16.10
2022-09-14T16:27:49.779Z,15.53
2022-09-14T16:30:17.391Z,15.27
2022-09-14T16:32:46.443Z,16.17
2022-09-14T16:35:13.947Z,15.97
2022-09-14T16:37:41.385Z,15.57
2022-09-14T16:40:09.667Z,15.40
2022-09-14T16:42:37.246Z,15.13
2022-09-14T16:45:05.285Z,14.90
2022-09-14T16:47:33.144Z,14.83
2022-09-14T16:50:01.937Z,15.83
2022-09-14T16:52:29.873Z,14.80
2022-09-14T16:54:57.322Z,14.70
2022-09-14T16:57:29.825Z,14.80
2022-09-14T16:59:57.277Z,14.60
2022-09-14T17:02:24.773Z,15.57
2022-09-14T17:04:52.722Z,14.43
2022-09-14T17:07:23.634Z,14.90
2022-09-14T17:09:51.317Z,14.80
2022-09-14T17:12:18.777Z,14.73
2022-09-14T17:14:47.698Z,14.67
2022-09-14T17:17:15.592Z,15.20
2022-09-14T17:19:43.847Z,14.93
2022-09-14T17:22:11.477Z,14.30
2022-09-14T17:24:40.591Z,14.57
2022-09-14T17:27:08.452Z,14.57
2022-09-14T17:29:39.369Z,14.50
2022-09-14T17:32:10.153Z,14.53
2022-09-14T17:34:40.085Z,14.50
2022-09-14T17:37:07.525Z,14.10
2022-09-14T17:39:34.956Z,14.07
2022-09-14T17:42:03.946Z,14.20
2022-09-14T17:44:31.796Z,16.20
2022-09-14T17:46:59.304Z,16.37
2022-09-14T17:49:26.746Z,16.93
2022-09-14T17:51:54.150Z,16.27
2022-09-14T17:54:21.816Z,16.70
2022-09-14T17:56:49.538Z,16.20
2022-09-14T17:59:19.897Z,15.47
2022-09-14T18:01:47.440Z,15.77
2022-09-14T18:04:15.748Z,15.60
2022-09-14T18:06:45.447Z,15.97
2022-09-14T18:09:15.003Z,16.33
2022-09-14T18:11:42.858Z,15.47
2022-09-14T18:14:12.596Z,15.73
2022-09-14T18:16:42.056Z,15.30
2022-09-14T18:19:11.933Z,15.43
2022-09-14T18:21:39.394Z,15.70
2022-09-14T18:24:07.497Z,16.50
2022-09-14T18:26:35.227Z,16.67
2022-09-14T18:29:03.563Z,17.80
2022-09-14T18:31:31.353Z,17.77
2022-09-14T18:34:00.988Z,17.13
2022-09-14T18:36:29.937Z,17.53
2022-09-14T18:38:57.994Z,17.43
2022-09-14T18:41:31.130Z,17.93
2022-09-14T18:43:59.211Z,18.00
2022-09-14T18:46:28.388Z,18.43
2022-09-14T18:48:57.692Z,19.10
2022-09-14T18:51:27.781Z,18.57
2022-09-14T18:53:58.800Z,18.63
2022-09-14T18:56:26.650Z,17.93
2022-09-14T18:58:54.439Z,18.20
2022-09-14T19:01:25.892Z,18.07
2022-09-14T19:03:55.855Z,17.37
2022-09-14T19:06:23.925Z,17.60
2022-09-14T19:08:53.178Z,17.83
2022-09-14T19:11:22.693Z,17.90
2022-09-14T19:13:56.237Z,17.57
2022-09-14T19:16:25.549Z,19.07
2022-09-14T19:18:54.597Z,17.43
2022-09-14T19:21:25.254Z,18.53
2022-09-14T19:24:04.655Z,19.37
2022-09-14T19:26:36.303Z,20.13
2022-09-14T19:29:07.651Z,20.10
2022-09-14T19:31:36.576Z,20.20
2022-09-14T19:34:05.907Z,20.33
2022-09-14T19:36:34.857Z,20.23
2022-09-14T19:39:05.075Z,21.40
2022-09-14T19:41:34.347Z,20.10
2022-09-14T19:44:03.310Z,20.60
2022-09-14T19:46:32.319Z,19.53
2022-09-14T19:49:00.043Z,18.50
2022-09-14T19:51:28.918Z,19.73
2022-09-14T19:53:57.641Z,18.63
2022-09-14T19:56:28.176Z,19.23
2022-09-14T19:59:01.459Z,19.03
2022-09-14T20:01:30.434Z,20.23
2022-09-14T20:03:58.502Z,19.80
2022-09-14T20:06:29.495Z,19.30
2022-09-14T20:08:59.865Z,20.90
2022-09-14T20:11:30.040Z,22.00
2022-09-14T20:13:59.917Z,20.80
2022-09-14T20:16:29.671Z,21.37
2022-09-14T20:18:58.485Z,21.03
2022-09-14T20:21:27.220Z,20.20
2022-09-14T20:24:14.489Z,21.57
2022-09-14T20:26:44.543Z,20.60
2022-09-14T20:29:12.261Z,18.53
2022-09-14T20:31:39.723Z,19.27
2022-09-14T20:34:09.950Z,20.70
2022-09-14T20:36:39.689Z,20.57
2022-09-14T20:39:10.018Z,20.63
2022-09-14T20:41:37.473Z,20.90
2022-09-14T20:44:07.034Z,19.73
2022-09-14T20:46:38.354Z,18.33
2022-09-14T20:49:08.677Z,17.87
2022-09-14T20:51:36.656Z,19.43
2022-09-14T20:54:08.132Z,19.27
2022-09-14T20:56:36.676Z,19.53
2022-09-14T20:59:09.426Z,20.63
2022-09-14T21:01:38.749Z,21.97
2022-09-14T21:04:08.911Z,21.93
2022-09-14T21:06:37.625Z,24.67
2022-09-14T21:09:05.188Z,24.03
2022-09-14T21:11:34.662Z,23.90
2022-09-14T21:14:02.308Z,23.83
2022-09-14T21:16:32.892Z,23.27
2022-09-14T21:19:02.264Z,21.20
2022-09-14T21:21:30.043Z,23.07
2022-09-14T21:23:58.646Z,22.47
2022-09-14T21:26:26.816Z,21.83
2022-09-14T21:28:56.218Z,21.83
2022-09-14T21:31:24.426Z,18.83
2022-09-14T21:33:55.158Z,18.70
2022-09-14T21:36:24.325Z,18.67
2022-09-14T21:38:52.986Z,17.77
2022-09-14T21:41:21.472Z,18.60
2022-09-14T21:43:49.001Z,18.07
2022-09-14T21:46:18.612Z,17.57
2022-09-14T21:48:46.933Z,17.53
2022-09-14T21:51:18.785Z,20.63
2022-09-14T21:53:47.342Z,20.23
2022-09-14T21:56:15.043Z,19.50
2022-09-14T21:58:42.537Z,19.63
2022-09-14T22:01:10.096Z,18.13
2022-09-14T22:03:38.826Z,19.23
2022-09-14T22:06:08.088Z,18.70
2022-09-14T22:08:36.990Z,20.17
2022-09-14T22:11:05.561Z,20.83
2022-09-14T22:13:33.036Z,20.37
2022-09-14T22:16:07.862Z,21.23
2022-09-14T22:18:35.720Z,22.20
2022-09-14T22:21:03.479Z,21.37
2022-09-14T22:23:31.178Z,21.43
2022-09-14T22:26:03.578Z,21.23
2022-09-14T22:28:31.100Z,20.37
2022-09-14T22:30:58.609Z,21.17
2022-09-14T22:33:26.060Z,19.77
2022-09-14T22:35:54.738Z,17.30
2022-09-14T22:38:22.603Z,20.13
2022-09-14T22:40:55.341Z,20.30
2022-09-14T22:43:25.137Z,21.97
2022-09-14T22:45:52.917Z,22.80
2022-09-14T22:48:21.051Z,23.20
2022-09-14T22:50:52.898Z,23.03
2022-09-14T22:53:21.393Z,23.07
2022-09-14T22:55:48.834Z,23.60
2022-09-14T22:58:17.788Z,22.50
2022-09-14T23:00:47.296Z,21.90
2022-09-14T23:03:16.029Z,21.43
2022-09-14T23:05:50.182Z,22.53
2022-09-14T23:08:18.169Z,21.37
2022-09-14T23:10:46.018Z,21.43
2022-09-14T23:13:13.413Z,20.70
2022-09-14T23:15:44.114Z,22.17
2022-09-14T23:18:13.423Z,23.97
2022-09-14T23:20:42.586Z,23.73
2022-09-14T23:23:10.794Z,26.20
2022-09-14T23:25:41.114Z,30.13
2022-09-14T23:28:10.876Z,29.83
2022-09-14T23:30:38.877Z,30.70
2022-09-14T23:33:06.593Z,31.73
2022-09-14T23:35:37.707Z,31.23
2022-09-14T23:38:05.493Z,31.60
2022-09-14T23:40:32.963Z,30.87
2022-09-14T23:43:00.421Z,32.27
2022-09-14T23:45:27.825Z,31.13
2022-09-14T23:47:55.690Z,31.70
2022-09-14T23:50:23.576Z,33.27
2022-09-14T23:52:57.133Z,34.03
2022-09-14T23:55:24.666Z,32.30
2022-09-14T23:57:52.125Z,32.30
